createdAt,value
2016-05-07T00:00:27.546Z,0
2016-05-07T00:01:27.533Z,0
2016-05-07T00:02:27.520Z,0
2016-05-07T00:03:27.679Z,0
2016-05-07T00:04:27.666Z,0
2016-05-07T00:05:27.669Z,0
2016-05-07T00:06:27.484Z,0
2016-05-07T00:07:27.628Z,0
2016-05-07T00:08:27.473Z,0
2016-05-07T00:09:27.633Z,0
2016-05-07T00:10:27.432Z,0
2016-05-07T00:11:27.420Z,0
2016-05-07T00:12:27.266Z,0
2016-05-07T00:13:27.565Z,0
2016-05-07T00:14:27.553Z,0
2016-05-07T00:15:27.383Z,0
2016-05-07T00:16:27.369Z,0
2016-05-07T00:17:27.513Z,0
2016-05-07T00:18:27.500Z,0
2016-05-07T00:19:27.347Z,0
2016-05-07T00:20:27.335Z,0
2016-05-07T00:21:27.337Z,0
2016-05-07T00:22:27.465Z,0
2016-05-07T00:23:27.029Z,0
2016-05-07T00:24:27.438Z,0
2016-05-07T00:25:27.269Z,0
2016-05-07T00:26:27.257Z,0
2016-05-07T00:27:28.446Z,0
2016-05-07T00:28:27.387Z,0
2016-05-07T00:29:27.389Z,0
2016-05-07T00:30:27.377Z,0
2016-05-07T00:31:27.051Z,0
2016-05-07T00:32:27.210Z,0
2016-05-07T00:33:27.337Z,0
2016-05-07T00:34:27.372Z,0
2016-05-07T00:35:27.312Z,0
2016-05-07T00:36:27.298Z,0
2016-05-07T00:37:27.146Z,0
2016-05-07T00:38:27.273Z,0
2016-05-07T00:39:27.276Z,0
2016-05-07T00:40:27.263Z,0
2016-05-07T00:41:27.094Z,0
2016-05-07T00:42:27.549Z,0
2016-05-07T00:43:27.067Z,0
2016-05-07T00:44:27.227Z,0
2016-05-07T00:45:27.214Z,0
2016-05-07T00:46:27.029Z,0
2016-05-07T00:47:27.016Z,0
2016-05-07T00:48:27.238Z,0
2016-05-07T00:49:27.162Z,0
2016-05-07T00:50:27.133Z,0
2016-05-07T00:51:27.152Z,0
2016-05-07T00:52:26.966Z,0
2016-05-07T00:53:26.938Z,0
2016-05-07T00:54:26.785Z,0
2016-05-07T00:55:26.788Z,0
2016-05-07T00:56:26.760Z,0
2016-05-07T00:57:27.417Z,0
2016-05-07T00:58:26.890Z,0
2016-05-07T00:59:27.048Z,0
2016-05-07T01:00:26.707Z,0
2016-05-07T01:01:27.006Z,0
2016-05-07T01:02:27.009Z,0
2016-05-07T01:03:26.856Z,0
2016-05-07T01:04:26.671Z,0
2016-05-07T01:05:26.956Z,0
2016-05-07T01:06:26.958Z,0
2016-05-07T01:07:26.945Z,0
2016-05-07T01:08:26.963Z,0
2016-05-07T01:09:26.919Z,0
2016-05-07T01:10:26.453Z,0
2016-05-07T01:11:26.893Z,0
2016-05-07T01:12:26.880Z,0
2016-05-07T01:13:26.883Z,0
2016-05-07T01:14:26.698Z,0
2016-05-07T01:15:26.528Z,0
2016-05-07T01:16:26.844Z,0
2016-05-07T01:17:26.831Z,0
2016-05-07T01:18:26.646Z,0
2016-05-07T01:19:26.805Z,0
2016-05-07T01:20:26.635Z,0
2016-05-07T01:21:26.780Z,0
2016-05-07T01:22:26.766Z,0
2016-05-07T01:23:26.769Z,0
2016-05-07T01:24:26.740Z,0
2016-05-07T01:25:26.728Z,0
2016-05-07T01:26:26.573Z,0
2016-05-07T01:27:27.780Z,0
2016-05-07T01:28:26.689Z,0
2016-05-07T01:29:26.535Z,0
2016-05-07T01:30:26.662Z,0
2016-05-07T01:31:26.666Z,0
2016-05-07T01:32:26.637Z,0
2016-05-07T01:33:26.640Z,0
2016-05-07T01:34:26.471Z,0
2016-05-07T01:35:26.457Z,0
2016-05-07T01:36:26.445Z,0
2016-05-07T01:37:26.275Z,0
2016-05-07T01:38:26.559Z,0
2016-05-07T01:39:26.578Z,0
2016-05-07T01:40:26.550Z,0
2016-05-07T01:41:26.576Z,0
2016-05-07T01:42:26.380Z,0
2016-05-07T01:43:26.523Z,0
2016-05-07T01:44:27.241Z,0
2016-05-07T01:45:26.493Z,0
2016-05-07T01:46:26.481Z,0
2016-05-07T01:47:26.296Z,0
2016-05-07T01:48:26.298Z,0
2016-05-07T01:49:26.441Z,0
2016-05-07T01:50:26.273Z,0
2016-05-07T01:51:26.087Z,0
2016-05-07T01:52:26.402Z,0
2016-05-07T01:53:26.421Z,0
2016-05-07T01:54:26.377Z,0
2016-05-07T01:55:26.051Z,0
2016-05-07T01:56:26.195Z,0
2016-05-07T01:57:27.713Z,0
2016-05-07T01:58:26.341Z,0
2016-05-07T01:59:26.156Z,0
2016-05-07T02:00:26.002Z,0
2016-05-07T02:01:26.302Z,0
2016-05-07T02:02:25.961Z,0
2016-05-07T02:03:26.104Z,0
2016-05-07T02:04:26.247Z,0
2016-05-07T02:05:26.094Z,0
2016-05-07T02:06:26.238Z,0
2016-05-07T02:07:26.240Z,0
2016-05-07T02:08:26.211Z,0
2016-05-07T02:09:26.042Z,0
2016-05-07T02:10:26.201Z,0
2016-05-07T02:11:26.173Z,0
2016-05-07T02:12:26.019Z,0
2016-05-07T02:13:26.146Z,0
2016-05-07T02:14:25.993Z,0
2016-05-07T02:15:25.964Z,0
2016-05-07T02:16:26.155Z,0
2016-05-07T02:17:26.110Z,0
2016-05-07T02:18:26.082Z,0
2016-05-07T02:19:25.928Z,0
2016-05-07T02:20:26.056Z,0
2016-05-07T02:21:25.886Z,0
2016-05-07T02:22:25.718Z,0
2016-05-07T02:23:26.048Z,0
2016-05-07T02:24:26.148Z,0
2016-05-07T02:25:25.682Z,0
2016-05-07T02:26:25.825Z,0
2016-05-07T02:27:26.875Z,0
2016-05-07T02:28:25.800Z,0
2016-05-07T02:29:25.943Z,0
2016-05-07T02:30:25.930Z,0
2016-05-07T02:31:25.775Z,0
2016-05-07T02:32:25.950Z,0
2016-05-07T02:33:25.892Z,0
2016-05-07T02:34:26.081Z,0
2016-05-07T02:35:25.881Z,0
2016-05-07T02:36:25.852Z,0
2016-05-07T02:37:25.524Z,0
2016-05-07T02:38:25.823Z,0
2016-05-07T02:39:25.827Z,0
2016-05-07T02:40:25.798Z,0
2016-05-07T02:41:25.644Z,0
2016-05-07T02:42:27.462Z,0
2016-05-07T02:43:25.790Z,0
2016-05-07T02:44:25.761Z,0
2016-05-07T02:45:25.749Z,0
2016-05-07T02:46:25.580Z,0
2016-05-07T02:47:25.566Z,0
2016-05-07T02:48:25.710Z,0
2016-05-07T02:49:25.696Z,0
2016-05-07T02:50:25.668Z,0
2016-05-07T02:51:25.687Z,0
2016-05-07T02:52:25.502Z,0
2016-05-07T02:53:25.645Z,0
2016-05-07T02:54:25.632Z,0
2016-05-07T02:55:25.635Z,0
2016-05-07T02:56:25.606Z,0
2016-05-07T02:57:25.156Z,0
2016-05-07T02:58:25.643Z,0
2016-05-07T02:59:25.411Z,0
2016-05-07T03:00:25.398Z,0
2016-05-07T03:01:25.386Z,0
2016-05-07T03:02:25.528Z,0
2016-05-07T03:03:25.516Z,0
2016-05-07T03:04:25.378Z,0
2016-05-07T03:05:25.506Z,0
2016-05-07T03:06:25.477Z,0
2016-05-07T03:07:25.308Z,0
2016-05-07T03:08:25.450Z,0
2016-05-07T03:09:25.438Z,0
2016-05-07T03:10:25.269Z,0
2016-05-07T03:11:25.413Z,0
2016-05-07T03:12:25.524Z,0
2016-05-07T03:13:25.402Z,0
2016-05-07T03:14:25.404Z,0
2016-05-07T03:15:25.377Z,0
2016-05-07T03:16:25.347Z,0
2016-05-07T03:17:25.335Z,0
2016-05-07T03:18:25.165Z,0
2016-05-07T03:19:25.152Z,0
2016-05-07T03:20:25.139Z,0
2016-05-07T03:21:25.127Z,0
2016-05-07T03:22:25.285Z,0
2016-05-07T03:23:25.273Z,0
2016-05-07T03:24:25.243Z,0
2016-05-07T03:25:25.232Z,0
2016-05-07T03:26:25.234Z,0
2016-05-07T03:27:25.768Z,0
2016-05-07T03:28:25.192Z,0
2016-05-07T03:29:25.195Z,0
2016-05-07T03:30:25.025Z,0
2016-05-07T03:31:25.013Z,0
2016-05-07T03:32:25.156Z,0
2016-05-07T03:33:24.987Z,0
2016-05-07T03:34:24.817Z,0
2016-05-07T03:35:25.118Z,0
2016-05-07T03:36:24.933Z,0
2016-05-07T03:37:25.076Z,0
2016-05-07T03:38:24.766Z,0
2016-05-07T03:39:24.738Z,0
2016-05-07T03:40:25.036Z,0
2016-05-07T03:41:25.040Z,0
2016-05-07T03:42:25.261Z,0
2016-05-07T03:43:25.013Z,0
2016-05-07T03:44:24.844Z,0
2016-05-07T03:45:24.675Z,0
2016-05-07T03:46:24.960Z,0
2016-05-07T03:47:24.947Z,0
2016-05-07T03:48:24.777Z,0
2016-05-07T03:49:24.952Z,0
2016-05-07T03:50:24.924Z,5
2016-05-07T03:51:24.738Z,5
2016-05-07T03:52:24.898Z,5
2016-05-07T03:53:24.884Z,5
2016-05-07T03:54:24.856Z,5
2016-05-07T03:55:24.859Z,5
2016-05-07T03:56:24.533Z,5
2016-05-07T03:57:24.630Z,5
2016-05-07T03:58:24.820Z,5
2016-05-07T03:59:24.807Z,5
2016-05-07T04:00:24.778Z,10
2016-05-07T04:01:24.781Z,10
2016-05-07T04:02:24.768Z,10
2016-05-07T04:03:24.583Z,10
2016-05-07T04:04:24.586Z,10
2016-05-07T04:05:24.714Z,10
2016-05-07T04:06:24.701Z,10
2016-05-07T04:07:24.531Z,10
2016-05-07T04:08:24.691Z,15
2016-05-07T04:09:24.694Z,15
2016-05-07T04:10:24.492Z,15
2016-05-07T04:11:24.480Z,15
2016-05-07T04:12:24.780Z,15
2016-05-07T04:13:24.625Z,15
2016-05-07T04:14:24.597Z,15
2016-05-07T04:15:24.428Z,20
2016-05-07T04:16:24.602Z,20
2016-05-07T04:17:24.574Z,20
2016-05-07T04:18:24.546Z,20
2016-05-07T04:19:24.549Z,20
2016-05-07T04:20:24.519Z,20
2016-05-07T04:21:24.351Z,20
2016-05-07T04:22:24.509Z,25
2016-05-07T04:23:24.356Z,25
2016-05-07T04:24:24.484Z,25
2016-05-07T04:25:24.158Z,25
2016-05-07T04:26:24.473Z,25
2016-05-07T04:27:25.882Z,25
2016-05-07T04:28:24.432Z,30
2016-05-07T04:29:24.434Z,30
2016-05-07T04:30:24.390Z,30
2016-05-07T04:31:24.393Z,30
2016-05-07T04:32:24.395Z,30
2016-05-07T04:33:24.211Z,30
2016-05-07T04:34:24.557Z,30
2016-05-07T04:35:24.325Z,35
2016-05-07T04:36:24.173Z,35
2016-05-07T04:37:24.315Z,35
2016-05-07T04:38:23.989Z,35
2016-05-07T04:39:24.134Z,35
2016-05-07T04:40:24.261Z,35
2016-05-07T04:41:24.107Z,35
2016-05-07T04:42:24.407Z,40
2016-05-07T04:43:24.082Z,40
2016-05-07T04:44:24.225Z,40
2016-05-07T04:45:24.211Z,40
2016-05-07T04:46:33.374Z,40
2016-05-07T04:47:24.186Z,40
2016-05-07T04:48:24.158Z,40
2016-05-07T04:49:24.160Z,45
2016-05-07T04:50:24.132Z,45
2016-05-07T04:51:23.978Z,45
2016-05-07T04:52:24.121Z,45
2016-05-07T04:53:24.093Z,45
2016-05-07T04:54:23.954Z,45
2016-05-07T04:55:23.910Z,45
2016-05-07T04:56:23.913Z,45
2016-05-07T04:57:24.088Z,50
2016-05-07T04:58:24.012Z,50
2016-05-07T04:59:24.031Z,50
2016-05-07T05:00:23.862Z,50
2016-05-07T05:01:23.990Z,50
2016-05-07T05:02:23.820Z,50
2016-05-07T05:03:23.964Z,50
2016-05-07T05:04:23.950Z,55
2016-05-07T05:05:23.938Z,55
2016-05-07T05:06:23.784Z,55
2016-05-07T05:07:23.770Z,55
2016-05-07T05:08:23.742Z,55
2016-05-07T05:09:23.761Z,55
2016-05-07T05:10:23.904Z,55
2016-05-07T05:11:23.876Z,60
2016-05-07T05:12:23.816Z,60
2016-05-07T05:13:23.866Z,60
2016-05-07T05:14:23.821Z,60
2016-05-07T05:15:23.667Z,60
2016-05-07T05:16:23.811Z,60
2016-05-07T05:17:23.798Z,60
2016-05-07T05:18:23.629Z,60
2016-05-07T05:19:23.772Z,65
2016-05-07T05:20:23.775Z,65
2016-05-07T05:21:23.590Z,65
2016-05-07T05:22:23.594Z,65
2016-05-07T05:23:23.736Z,65
2016-05-07T05:24:23.707Z,65
2016-05-07T05:25:23.710Z,65
2016-05-07T05:26:23.682Z,65
2016-05-07T05:27:23.684Z,70
2016-05-07T05:28:23.656Z,70
2016-05-07T05:29:23.502Z,70
2016-05-07T05:30:23.474Z,70
2016-05-07T05:31:23.632Z,70
2016-05-07T05:32:23.463Z,70
2016-05-07T05:33:23.451Z,70
2016-05-07T05:34:23.578Z,70
2016-05-07T05:35:23.425Z,75
2016-05-07T05:36:23.568Z,75
2016-05-07T05:37:23.398Z,75
2016-05-07T05:38:23.542Z,75
2016-05-07T05:39:23.529Z,75
2016-05-07T05:40:23.578Z,75
2016-05-07T05:41:23.504Z,75
2016-05-07T05:42:23.834Z,75
2016-05-07T05:43:23.492Z,75
2016-05-07T05:44:23.465Z,80
2016-05-07T05:45:23.483Z,80
2016-05-07T05:46:23.455Z,80
2016-05-07T05:47:23.441Z,80
2016-05-07T05:48:23.413Z,80
2016-05-07T05:49:23.400Z,80
2016-05-07T05:50:23.261Z,80
2016-05-07T05:51:23.233Z,80
2016-05-07T05:52:23.377Z,80
2016-05-07T05:53:23.364Z,85
2016-05-07T05:54:23.351Z,85
2016-05-07T05:55:23.182Z,85
2016-05-07T05:56:23.325Z,85
2016-05-07T05:57:23.437Z,85
2016-05-07T05:58:23.158Z,85
2016-05-07T05:59:23.302Z,85
2016-05-07T06:00:23.274Z,85
2016-05-07T06:01:23.276Z,90
2016-05-07T06:02:23.326Z,90
2016-05-07T06:03:23.109Z,90
2016-05-07T06:04:22.768Z,90
2016-05-07T06:05:23.240Z,90
2016-05-07T06:06:23.212Z,90
2016-05-07T06:07:23.214Z,90
2016-05-07T06:08:23.185Z,90
2016-05-07T06:09:23.188Z,95
2016-05-07T06:10:23.176Z,95
2016-05-07T06:11:23.022Z,95
2016-05-07T06:12:23.445Z,95
2016-05-07T06:13:22.995Z,95
2016-05-07T06:14:22.983Z,95
2016-05-07T06:15:23.126Z,95
2016-05-07T06:16:23.114Z,95
2016-05-07T06:17:23.084Z,95
2016-05-07T06:18:23.072Z,95
2016-05-07T06:19:23.075Z,95
2016-05-07T06:20:22.890Z,95
2016-05-07T06:21:23.049Z,95
2016-05-07T06:22:22.880Z,95
2016-05-07T06:23:23.288Z,95
2016-05-07T06:24:24.447Z,95
2016-05-07T06:25:22.997Z,100
2016-05-07T06:26:22.999Z,100
2016-05-07T06:27:22.830Z,100
2016-05-07T06:28:22.818Z,100
2016-05-07T06:29:22.960Z,100
2016-05-07T06:30:22.948Z,100
2016-05-07T06:31:22.950Z,100
2016-05-07T06:32:22.937Z,100
2016-05-07T06:33:22.628Z,105
2016-05-07T06:34:22.974Z,105
2016-05-07T06:35:22.898Z,105
2016-05-07T06:36:22.886Z,105
2016-05-07T06:37:22.888Z,105
2016-05-07T06:38:22.876Z,105
2016-05-07T06:39:22.909Z,105
2016-05-07T06:40:22.740Z,110
2016-05-07T06:41:22.853Z,110
2016-05-07T06:42:23.198Z,110
2016-05-07T06:43:22.811Z,110
2016-05-07T06:44:22.828Z,110
2016-05-07T06:45:22.800Z,110
2016-05-07T06:46:22.803Z,110
2016-05-07T06:47:22.775Z,115
2016-05-07T06:48:22.762Z,115
2016-05-07T06:49:22.749Z,115
2016-05-07T06:50:22.595Z,115
2016-05-07T06:51:22.567Z,115
2016-05-07T06:52:22.413Z,115
2016-05-07T06:53:22.713Z,115
2016-05-07T06:54:22.544Z,120
2016-05-07T06:55:22.702Z,125
2016-05-07T06:56:22.674Z,120
2016-05-07T06:57:22.598Z,120
2016-05-07T06:58:22.664Z,120
2016-05-07T06:59:22.651Z,120
2016-05-07T07:00:22.653Z,120
2016-05-07T07:01:22.484Z,125
2016-05-07T07:02:22.627Z,125
2016-05-07T07:03:22.630Z,125
2016-05-07T07:04:22.602Z,125
2016-05-07T07:05:22.604Z,125
2016-05-07T07:06:22.451Z,125
2016-05-07T07:07:22.578Z,130
2016-05-07T07:08:22.566Z,130
2016-05-07T07:09:22.553Z,130
2016-05-07T07:10:22.383Z,130
2016-05-07T07:11:22.543Z,130
2016-05-07T07:12:22.467Z,130
2016-05-07T07:13:22.376Z,135
2016-05-07T07:14:22.503Z,135
2016-05-07T07:15:22.350Z,135
2016-05-07T07:16:22.477Z,135
2016-05-07T07:17:22.481Z,135
2016-05-07T07:18:22.484Z,135
2016-05-07T07:19:22.470Z,135
2016-05-07T07:20:22.472Z,140
2016-05-07T07:21:22.428Z,140
2016-05-07T07:22:22.478Z,140
2016-05-07T07:23:22.450Z,140
2016-05-07T07:24:22.437Z,145
2016-05-07T07:25:22.408Z,145
2016-05-07T07:26:22.255Z,190
2016-05-07T07:27:22.382Z,150
2016-05-07T07:28:22.385Z,150
2016-05-07T07:29:22.402Z,150
2016-05-07T07:30:22.063Z,155
2016-05-07T07:31:22.363Z,165
2016-05-07T07:32:22.193Z,175
2016-05-07T07:33:22.335Z,175
2016-05-07T07:34:22.370Z,155
2016-05-07T07:35:22.341Z,155
2016-05-07T07:36:22.313Z,155
2016-05-07T07:37:22.316Z,155
2016-05-07T07:38:22.302Z,155
2016-05-07T07:39:22.149Z,155
2016-05-07T07:40:22.511Z,160
2016-05-07T07:41:22.295Z,160
2016-05-07T07:42:22.579Z,160
2016-05-07T07:43:22.270Z,165
2016-05-07T07:44:22.115Z,165
2016-05-07T07:45:22.243Z,165
2016-05-07T07:46:22.261Z,165
2016-05-07T07:47:22.280Z,165
2016-05-07T07:48:22.236Z,170
2016-05-07T07:49:22.457Z,170
2016-05-07T07:50:22.209Z,170
2016-05-07T07:51:22.056Z,170
2016-05-07T07:52:22.199Z,175
2016-05-07T07:53:22.047Z,175
2016-05-07T07:54:21.877Z,175
2016-05-07T07:55:22.036Z,175
2016-05-07T07:56:22.180Z,180
2016-05-07T07:57:24.088Z,180
2016-05-07T07:58:22.013Z,180
2016-05-07T07:59:22.015Z,180
2016-05-07T08:00:22.143Z,180
2016-05-07T08:01:22.146Z,185
2016-05-07T08:02:22.149Z,185
2016-05-07T08:03:21.963Z,185
2016-05-07T08:04:22.138Z,185
2016-05-07T08:05:21.953Z,190
2016-05-07T08:06:22.113Z,190
2016-05-07T08:07:22.115Z,190
2016-05-07T08:08:21.946Z,305
2016-05-07T08:09:21.948Z,995
2016-05-07T08:10:22.092Z,1390
2016-05-07T08:11:21.923Z,1380
2016-05-07T08:12:22.378Z,1355
2016-05-07T08:13:21.912Z,1280
2016-05-07T08:14:21.915Z,1140
2016-05-07T08:15:21.901Z,1060
2016-05-07T08:16:22.062Z,1070
2016-05-07T08:17:22.048Z,1125
2016-05-07T08:18:22.050Z,1205
2016-05-07T08:19:22.053Z,1350
2016-05-07T08:20:22.040Z,1460
2016-05-07T08:21:21.887Z,1470
2016-05-07T08:22:22.046Z,1370
2016-05-07T08:23:22.064Z,1250
2016-05-07T08:24:22.035Z,1145
2016-05-07T08:25:22.038Z,1135
2016-05-07T08:26:22.042Z,1210
2016-05-07T08:27:22.669Z,1305
2016-05-07T08:28:21.733Z,1395
2016-05-07T08:29:21.741Z,1430
2016-05-07T08:30:22.099Z,1395
2016-05-07T08:31:22.146Z,1325
2016-05-07T08:32:22.175Z,1335
2016-05-07T08:33:22.221Z,1420
2016-05-07T08:34:22.466Z,1515
2016-05-07T08:35:22.297Z,1660
2016-05-07T08:36:22.300Z,1740
2016-05-07T08:37:22.349Z,1725
2016-05-07T08:38:22.257Z,1675
2016-05-07T08:39:22.352Z,1655
2016-05-07T08:40:22.189Z,1690
2016-05-07T08:41:22.197Z,1745
2016-05-07T08:42:22.691Z,1745
2016-05-07T08:43:22.230Z,1730
2016-05-07T08:44:22.379Z,1735
2016-05-07T08:45:22.384Z,1740
2016-05-07T08:46:22.404Z,1725
2016-05-07T08:47:22.408Z,1635
2016-05-07T08:48:22.397Z,1735
2016-05-07T08:49:22.418Z,1305
2016-05-07T08:50:22.437Z,1215
2016-05-07T08:51:22.424Z,1020
2016-05-07T08:52:22.413Z,1230
2016-05-07T08:53:22.447Z,1275
2016-05-07T08:54:22.450Z,1235
2016-05-07T08:55:22.453Z,1190
2016-05-07T08:56:22.285Z,1005
2016-05-07T08:57:22.460Z,1260
2016-05-07T08:58:22.291Z,1650
2016-05-07T08:59:22.450Z,1445
2016-05-07T09:00:22.296Z,1190
2016-05-07T09:01:22.299Z,1070
2016-05-07T09:02:22.146Z,850
2016-05-07T09:03:22.460Z,620
2016-05-07T09:04:22.464Z,690
2016-05-07T09:05:22.466Z,625
2016-05-07T09:06:22.469Z,575
2016-05-07T09:07:22.487Z,805
2016-05-07T09:08:22.318Z,905
2016-05-07T09:09:22.477Z,700
2016-05-07T09:10:22.480Z,740
2016-05-07T09:11:22.467Z,855
2016-05-07T09:12:22.860Z,825
2016-05-07T09:13:22.487Z,545
2016-05-07T09:14:22.335Z,525
2016-05-07T09:15:22.165Z,515
2016-05-07T09:16:22.496Z,885
2016-05-07T09:17:22.498Z,1300
2016-05-07T09:18:22.486Z,835
2016-05-07T09:19:22.332Z,525
2016-05-07T09:20:22.492Z,650
2016-05-07T09:21:22.337Z,975
2016-05-07T09:22:22.324Z,1540
2016-05-07T09:23:22.500Z,1495
2016-05-07T09:24:22.502Z,1080
2016-05-07T09:25:22.505Z,740
2016-05-07T09:26:22.336Z,725
2016-05-07T09:27:23.416Z,1010
2016-05-07T09:28:22.497Z,1075
2016-05-07T09:29:22.500Z,885
2016-05-07T09:30:22.346Z,1000
2016-05-07T09:31:22.505Z,1125
2016-05-07T09:32:22.351Z,1365
2016-05-07T09:33:22.354Z,1540
2016-05-07T09:34:22.513Z,1445
2016-05-07T09:35:22.360Z,770
2016-05-07T09:36:22.519Z,505
2016-05-07T09:37:22.521Z,460
2016-05-07T09:38:22.524Z,605
2016-05-07T09:39:22.354Z,690
2016-05-07T09:40:22.529Z,995
2016-05-07T09:41:22.516Z,640
2016-05-07T09:42:22.394Z,285
2016-05-07T09:43:22.365Z,290
2016-05-07T09:44:22.368Z,445
2016-05-07T09:45:22.527Z,470
2016-05-07T09:46:22.374Z,365
2016-05-07T09:47:22.376Z,310
2016-05-07T09:48:22.535Z,405
2016-05-07T09:49:22.381Z,455
2016-05-07T09:50:22.540Z,1095
2016-05-07T09:51:22.371Z,1225
2016-05-07T09:52:22.374Z,1170
2016-05-07T09:53:22.517Z,1005
2016-05-07T09:54:22.520Z,825
2016-05-07T09:55:22.522Z,645
2016-05-07T09:56:22.214Z,440
2016-05-07T09:57:23.137Z,695
2016-05-07T09:58:22.515Z,725
2016-05-07T09:59:22.517Z,380
2016-05-07T10:00:22.364Z,410
2016-05-07T10:01:22.523Z,540
2016-05-07T10:02:22.370Z,785
2016-05-07T10:03:22.200Z,1490
2016-05-07T10:04:22.219Z,1535
2016-05-07T10:05:22.534Z,1255
2016-05-07T10:06:22.536Z,1160
2016-05-07T10:07:22.524Z,1590
2016-05-07T10:08:22.230Z,1595
2016-05-07T10:09:22.529Z,1500
2016-05-07T10:10:22.532Z,1775
2016-05-07T10:11:22.519Z,1955
2016-05-07T10:12:22.834Z,1910
2016-05-07T10:13:22.524Z,2040
2016-05-07T10:14:22.387Z,1720
2016-05-07T10:15:22.529Z,1720
2016-05-07T10:16:22.548Z,2080
2016-05-07T10:17:22.535Z,2110
2016-05-07T10:18:22.648Z,2115
2016-05-07T10:19:22.540Z,2105
2016-05-07T10:20:22.403Z,2125
2016-05-07T10:21:22.406Z,2175
2016-05-07T10:22:22.564Z,2215
2016-05-07T10:23:22.566Z,2170
2016-05-07T10:24:22.553Z,2115
2016-05-07T10:25:22.573Z,2060
2016-05-07T10:26:22.419Z,2100
2016-05-07T10:27:22.546Z,2155
2016-05-07T10:28:22.592Z,2175
2016-05-07T10:29:22.422Z,2135
2016-05-07T10:30:22.580Z,2050
2016-05-07T10:31:22.600Z,2165
2016-05-07T10:32:22.617Z,2145
2016-05-07T10:33:22.605Z,2080
2016-05-07T10:34:22.794Z,2040
2016-05-07T10:35:22.626Z,2045
2016-05-07T10:36:22.316Z,2110
2016-05-07T10:37:22.630Z,2150
2016-05-07T10:38:22.634Z,2195
2016-05-07T10:39:22.621Z,2180
2016-05-07T10:40:22.638Z,2120
2016-05-07T10:41:22.485Z,2175
2016-05-07T10:42:22.675Z,2180
2016-05-07T10:43:22.522Z,2155
2016-05-07T10:44:22.509Z,2150
2016-05-07T10:45:22.512Z,2195
2016-05-07T10:46:22.515Z,2205
2016-05-07T10:47:22.688Z,2190
2016-05-07T10:48:22.691Z,2180
2016-05-07T10:49:22.710Z,2205
2016-05-07T10:50:22.526Z,2215
2016-05-07T10:51:22.699Z,2195
2016-05-07T10:52:22.734Z,2220
2016-05-07T10:53:22.705Z,2260
2016-05-07T10:54:22.707Z,2225
2016-05-07T10:55:22.945Z,2090
2016-05-07T10:56:22.572Z,1640
2016-05-07T10:57:22.841Z,1855
2016-05-07T10:58:22.750Z,1735
2016-05-07T10:59:22.736Z,1765
2016-05-07T11:00:22.599Z,1915
2016-05-07T11:01:22.758Z,1980
2016-05-07T11:02:22.760Z,2000
2016-05-07T11:03:22.778Z,2055
2016-05-07T11:04:22.610Z,2055
2016-05-07T11:05:22.784Z,2090
2016-05-07T11:06:22.786Z,2140
2016-05-07T11:07:22.790Z,2095
2016-05-07T11:08:22.792Z,2070
2016-05-07T11:09:22.794Z,2005
2016-05-07T11:10:22.797Z,1905
2016-05-07T11:11:22.832Z,1875
2016-05-07T11:12:22.694Z,1970
2016-05-07T11:13:22.837Z,2015
2016-05-07T11:14:22.840Z,2070
2016-05-07T11:15:22.843Z,2060
2016-05-07T11:16:22.876Z,1510
2016-05-07T11:17:22.879Z,1925
2016-05-07T11:18:22.866Z,2025
2016-05-07T11:19:22.869Z,2110
2016-05-07T11:20:22.871Z,2175
2016-05-07T11:21:22.718Z,2255
2016-05-07T11:22:22.892Z,2230
2016-05-07T11:23:23.254Z,2240
2016-05-07T11:24:22.742Z,2230
2016-05-07T11:25:22.916Z,2220
2016-05-07T11:26:22.747Z,1615
2016-05-07T11:27:22.921Z,2055
2016-05-07T11:28:22.924Z,505
2016-05-07T11:29:22.942Z,2085
2016-05-07T11:30:22.929Z,1885
2016-05-07T11:31:22.948Z,960
2016-05-07T11:32:22.950Z,1835
2016-05-07T11:33:22.970Z,1885
2016-05-07T11:34:22.972Z,1995
2016-05-07T11:35:22.959Z,2050
2016-05-07T11:36:22.977Z,2155
2016-05-07T11:37:22.666Z,2215
2016-05-07T11:38:22.998Z,2245
2016-05-07T11:39:22.985Z,2225
2016-05-07T11:40:23.003Z,2235
2016-05-07T11:41:23.021Z,2190
2016-05-07T11:42:24.134Z,2080
2016-05-07T11:43:22.871Z,1950
2016-05-07T11:44:22.873Z,1765
2016-05-07T11:45:23.033Z,1565
2016-05-07T11:46:23.051Z,1520
2016-05-07T11:47:23.054Z,1625
2016-05-07T11:48:23.056Z,1825
2016-05-07T11:49:23.059Z,2035
2016-05-07T11:50:23.093Z,2125
2016-05-07T11:51:23.080Z,2170
2016-05-07T11:52:23.082Z,2130
2016-05-07T11:53:22.945Z,2145
2016-05-07T11:54:22.948Z,2190
2016-05-07T11:55:23.090Z,2195
2016-05-07T11:56:23.109Z,2175
2016-05-07T11:57:23.376Z,2155
2016-05-07T11:58:23.115Z,2125
2016-05-07T11:59:22.961Z,2130
2016-05-07T12:00:23.135Z,2135
2016-05-07T12:01:23.184Z,2165
2016-05-07T12:02:23.156Z,2215
2016-05-07T12:03:23.143Z,2205
2016-05-07T12:04:23.005Z,2180
2016-05-07T12:05:23.180Z,2150
2016-05-07T12:06:23.183Z,2150
2016-05-07T12:07:23.186Z,2145
2016-05-07T12:08:23.047Z,2140
2016-05-07T12:09:23.019Z,2105
2016-05-07T12:10:23.444Z,2110
2016-05-07T12:11:23.211Z,2100
2016-05-07T12:12:23.214Z,2080
2016-05-07T12:13:23.217Z,2055
2016-05-07T12:14:23.235Z,2045
2016-05-07T12:15:23.222Z,2065
2016-05-07T12:16:23.241Z,2095
2016-05-07T12:17:23.243Z,2105
2016-05-07T12:18:23.262Z,2105
2016-05-07T12:19:23.265Z,2120
2016-05-07T12:20:23.268Z,2130
2016-05-07T12:21:23.285Z,2120
2016-05-07T12:22:23.132Z,2135
2016-05-07T12:23:23.338Z,2155
2016-05-07T12:24:23.309Z,2165
2016-05-07T12:25:23.296Z,2120
2016-05-07T12:26:23.298Z,2000
2016-05-07T12:27:24.255Z,1895
2016-05-07T12:28:23.320Z,1815
2016-05-07T12:29:23.338Z,1830
2016-05-07T12:30:23.184Z,1890
2016-05-07T12:31:23.343Z,1975
2016-05-07T12:32:23.346Z,2040
2016-05-07T12:33:23.348Z,2095
2016-05-07T12:34:23.212Z,2105
2016-05-07T12:35:23.369Z,2085
2016-05-07T12:36:23.373Z,2065
2016-05-07T12:37:23.219Z,2020
2016-05-07T12:38:23.237Z,2025
2016-05-07T12:39:23.239Z,2020
2016-05-07T12:40:23.243Z,2020
2016-05-07T12:41:23.261Z,2035
2016-05-07T12:42:23.639Z,2035
2016-05-07T12:43:23.500Z,2060
2016-05-07T12:44:23.113Z,2050
2016-05-07T12:45:23.444Z,2020
2016-05-07T12:46:23.447Z,2020
2016-05-07T12:47:23.433Z,2040
2016-05-07T12:48:23.452Z,2025
2016-05-07T12:49:23.471Z,2025
2016-05-07T12:50:23.144Z,2025
2016-05-07T12:51:23.460Z,2015
2016-05-07T12:52:23.321Z,2030
2016-05-07T12:53:23.481Z,2015
2016-05-07T12:54:23.326Z,2000
2016-05-07T12:55:23.487Z,1935
2016-05-07T12:56:23.176Z,1915
2016-05-07T12:57:24.913Z,1900
2016-05-07T12:58:23.229Z,1915
2016-05-07T12:59:23.529Z,1965
2016-05-07T13:00:23.515Z,1990
2016-05-07T13:01:23.549Z,2040
2016-05-07T13:02:23.240Z,2055
2016-05-07T13:03:23.539Z,2030
2016-05-07T13:04:23.745Z,2020
2016-05-07T13:05:23.575Z,1995
2016-05-07T13:06:23.562Z,2000
2016-05-07T13:07:23.581Z,1990
2016-05-07T13:08:23.567Z,1985
2016-05-07T13:09:23.586Z,1925
2016-05-07T13:10:23.464Z,1855
2016-05-07T13:11:23.608Z,1745
2016-05-07T13:12:24.391Z,1660
2016-05-07T13:13:23.472Z,1585
2016-05-07T13:14:23.615Z,1510
2016-05-07T13:15:23.634Z,1570
2016-05-07T13:16:23.636Z,1735
2016-05-07T13:17:23.482Z,1875
2016-05-07T13:18:23.641Z,1940
2016-05-07T13:19:23.660Z,1960
2016-05-07T13:20:23.350Z,1935
2016-05-07T13:21:23.649Z,1925
2016-05-07T13:22:23.668Z,1905
2016-05-07T13:23:23.515Z,1840
2016-05-07T13:24:23.673Z,1775
2016-05-07T13:25:23.676Z,1740
2016-05-07T13:26:23.538Z,1775
2016-05-07T13:27:23.479Z,1810
2016-05-07T13:28:23.543Z,1825
2016-05-07T13:29:23.703Z,1835
2016-05-07T13:30:23.595Z,1825
2016-05-07T13:31:23.723Z,1810
2016-05-07T13:32:23.726Z,1780
2016-05-07T13:33:23.573Z,1815
2016-05-07T13:34:37.841Z,1855
2016-05-07T13:35:23.750Z,1855
2016-05-07T13:36:23.753Z,1865
2016-05-07T13:37:23.443Z,1855
2016-05-07T13:38:23.773Z,1845
2016-05-07T13:39:23.605Z,1815
2016-05-07T13:40:23.623Z,1795
2016-05-07T13:41:23.625Z,1760
2016-05-07T13:42:23.644Z,1755
2016-05-07T13:43:23.787Z,1760
2016-05-07T13:44:23.634Z,1720
2016-05-07T13:45:23.824Z,1735
2016-05-07T13:46:23.827Z,1690
2016-05-07T13:47:23.657Z,1705
2016-05-07T13:48:23.816Z,1750
2016-05-07T13:49:23.882Z,1820
2016-05-07T13:50:23.838Z,1795
2016-05-07T13:51:23.668Z,1750
2016-05-07T13:52:23.843Z,1660
2016-05-07T13:53:23.549Z,1655
2016-05-07T13:54:23.864Z,1665
2016-05-07T13:55:23.866Z,1695
2016-05-07T13:56:23.884Z,1730
2016-05-07T13:57:23.574Z,1785